Time;durP1;ratioP1;P1;durP2;ratioP2;P2;SDS_P1;SDS_P2;PMS_P1;PMS_P2;Temp;Humidity;BMP_temperature;BMP_pressure;BME280_temperature;BME280_humidity;BME280_pressure;Samples;Min_cycle;Max_cycle;Signal;HPM_P1;HPM_P2
2022/06/30 00:01:04;;;;;;;10.50;5.53;;;21.30;97.40;;;21.82;63.25;94950.63;5126832;27;20578;-56
2022/06/30 00:03:31;;;;;;;5.57;5.10;;;21.30;97.50;;;21.79;63.11;94953.72;5126726;27;20800;-52
2022/06/30 00:06:00;;;;;;;7.53;5.40;;;21.30;97.50;;;21.77;63.34;94948.56;5125730;27;20856;-54
2022/06/30 00:08:27;;;;;;;7.23;6.03;;;21.30;97.60;;;21.73;63.38;94944.63;5126982;27;20440;-54
2022/06/30 00:10:54;;;;;;;6.20;5.13;;;21.20;97.60;;;21.69;63.49;94954.13;5126782;27;20479;-55
2022/06/30 00:13:22;;;;;;;6.00;5.50;;;21.20;97.60;;;21.66;63.41;94951.88;5122275;27;20451;-54
2022/06/30 00:15:49;;;;;;;7.40;5.30;;;21.20;97.70;;;21.63;63.29;94954.97;5126469;27;20999;-55
2022/06/30 00:18:16;;;;;;;5.70;5.30;;;21.10;97.70;;;21.61;63.68;94963.19;5123490;27;21023;-55
2022/06/30 00:20:44;;;;;;;6.50;6.00;;;21.10;97.80;;;21.58;63.85;94954.75;5126341;27;20549;-56
2022/06/30 00:23:12;;;;;;;6.83;5.70;;;21.00;97.90;;;21.55;63.92;94956.00;5126822;27;20525;-54
2022/06/30 00:25:40;;;;;;;5.47;5.07;;;21.00;98.00;;;21.50;63.64;94955.78;5126497;27;20464;-55
2022/06/30 00:28:07;;;;;;;6.57;5.57;;;21.00;98.00;;;21.47;64.01;94948.97;5122219;27;20501;-54
2022/06/30 00:30:34;;;;;;;9.13;4.90;;;21.00;98.00;;;21.44;64.07;94945.84;5126664;28;20979;-55
2022/06/30 00:33:02;;;;;;;6.83;5.67;;;21.00;98.20;;;21.41;64.08;94941.75;5126745;28;20467;-55
2022/06/30 00:35:29;;;;;;;6.57;5.47;;;20.90;98.20;;;21.37;64.38;94953.88;5126150;28;20487;-55
2022/06/30 00:37:56;;;;;;;10.40;6.03;;;20.90;98.40;;;21.33;64.31;94936.59;5126767;28;20443;-56
2022/06/30 00:40:25;;;;;;;7.33;5.70;;;20.80;98.30;;;21.30;64.47;94932.50;5125409;28;20483;-52
2022/06/30 00:42:52;;;;;;;8.03;6.30;;;20.80;98.50;;;21.27;64.57;94934.72;5125826;28;20929;-54
2022/06/30 00:45:20;;;;;;;7.73;5.43;;;20.80;98.50;;;21.25;64.63;94931.44;5126435;28;21026;-54
2022/06/30 00:47:47;;;;;;;14.50;5.73;;;20.80;98.70;;;21.22;64.87;94938.00;5126476;28;20448;-53
2022/06/30 00:50:14;;;;;;;8.57;5.63;;;20.70;98.80;;;21.20;64.88;94941.94;5126436;28;20471;-56
2022/06/30 00:52:41;;;;;;;7.77;5.37;;;20.70;98.90;;;21.17;65.01;94943.16;5126415;28;20460;-55
2022/06/30 00:55:10;;;;;;;8.30;5.73;;;20.70;99.00;;;21.16;64.98;94941.50;5126144;28;20496;-55
2022/06/30 00:57:38;;;;;;;10.50;6.47;;;20.70;99.10;;;21.13;65.23;94950.78;5126214;28;20460;-53
2022/06/30 01:00:07;;;;;;;5.33;4.83;;;20.70;99.20;;;21.12;65.32;94945.63;5122973;28;20524;-55
2022/06/30 01:02:35;;;;;;;5.47;4.97;;;20.60;99.20;;;21.09;65.23;94938.84;5126193;28;20463;-58
2022/06/30 01:05:02;;;;;;;7.57;6.60;;;20.60;99.20;;;21.07;65.63;94927.53;5125230;28;20480;-55
2022/06/30 01:07:29;;;;;;;7.37;5.40;;;20.60;99.60;;;21.04;65.56;94935.97;5126087;28;20452;-55
2022/06/30 01:12:44;;;;;;;6.63;6.10;;;20.50;99.50;;;20.99;65.49;94925.06;5129751;27;20422;-54
2022/06/30 01:15:12;;;;;;;7.30;5.87;;;20.50;99.40;;;20.98;65.54;94927.94;5129863;27;21100;-55
2022/06/30 01:17:39;;;;;;;7.27;6.10;;;20.50;99.50;;;20.97;65.50;94932.44;5126432;27;20444;-54
2022/06/30 01:20:08;;;;;;;8.03;5.80;;;20.50;99.50;;;20.95;65.62;94932.63;5129941;27;21004;-55
2022/06/30 01:22:36;;;;;;;14.60;5.70;;;20.50;99.50;;;20.94;65.67;94928.34;5130358;27;20455;-54
2022/06/30 01:25:04;;;;;;;8.47;6.00;;;20.50;99.50;;;20.92;65.80;94926.88;5129764;27;21019;-55
2022/06/30 01:27:31;;;;;;;12.43;5.97;;;20.40;99.60;;;20.90;65.91;94932.44;5129311;27;20846;-54
2022/06/30 01:29:59;;;;;;;6.90;6.20;;;20.40;99.60;;;20.85;65.93;94924.19;5130202;27;20503;-54
2022/06/30 01:32:28;;;;;;;5.93;5.43;;;20.40;99.70;;;20.82;66.03;94929.09;5125897;27;20455;-54
2022/06/30 01:34:55;;;;;;;10.30;5.80;;;20.30;99.70;;;20.81;66.36;94927.47;5129613;27;20488;-55
2022/06/30 01:37:22;;;;;;;14.67;6.13;;;20.30;99.90;;;20.80;66.46;94933.84;5129863;27;20490;-56
2022/06/30 01:39:51;;;;;;;7.67;6.43;;;20.30;99.90;;;20.80;66.62;94937.34;5129315;27;20515;-56
2022/06/30 01:42:18;;;;;;;7.57;6.20;;;20.30;99.90;;;20.78;66.53;94926.03;5129894;27;20479;-55
2022/06/30 01:44:45;;;;;;;7.20;5.90;;;20.30;99.90;;;20.77;66.51;94927.88;5129405;27;20448;-55
2022/06/30 01:47:13;;;;;;;9.37;5.40;;;20.30;99.90;;;20.74;66.32;94920.28;5125375;27;20566;-54
2022/06/30 01:49:40;;;;;;;15.60;6.00;;;20.20;99.90;;;20.72;66.36;94924.97;5129466;27;20480;-54
2022/06/30 01:52:08;;;;;;;13.27;6.97;;;20.20;99.90;;;20.74;66.45;94932.78;5129442;27;20459;-56
2022/06/30 01:54:35;;;;;;;8.80;6.87;;;20.20;99.90;;;20.74;66.31;94932.78;5129311;27;20839;-55
2022/06/30 01:57:06;;;;;;;8.80;7.40;;;20.20;99.90;;;20.73;66.68;94931.97;5125295;27;20495;-54
2022/06/30 01:59:33;;;;;;;7.40;6.50;;;20.20;99.90;;;20.73;66.40;94931.97;5129216;27;20436;-57
2022/06/30 02:02:00;;;;;;;9.20;6.53;;;20.20;99.90;;;20.70;66.46;94932.38;5129160;27;20467;-54
2022/06/30 02:07:12;;;;;;;8.03;6.80;;;20.20;99.90;;;20.63;66.48;94926.16;5129552;27;20744;-53
2022/06/30 02:09:39;;;;;;;10.60;6.77;;;20.20;99.90;;;20.62;66.94;94940.56;5128555;27;20452;-55
2022/06/30 02:14:54;;;;;;;8.80;5.80;;;20.10;99.90;;;20.59;67.05;94930.28;5125522;27;20471;-55
2022/06/30 02:17:22;;;;;;;10.00;6.17;;;20.10;99.90;;;20.57;67.23;94930.47;5124250;27;20444;-54
2022/06/30 02:19:49;;;;;;;43.20;6.20;;;20.10;99.90;;;20.56;66.96;94936.00;5129232;27;20448;-55
2022/06/30 02:22:16;;;;;;;7.63;5.50;;;20.10;99.90;;;20.54;67.04;94930.88;5126037;27;20457;-53
2022/06/30 02:24:43;;;;;;;6.87;5.60;;;20.00;99.90;;;20.52;67.07;94929.41;5127956;27;20460;-55
2022/06/30 02:27:12;;;;;;;10.00;5.87;;;20.00;99.90;;;20.53;67.01;94936.41;5128299;27;20826;-55
2022/06/30 02:29:39;;;;;;;6.20;5.60;;;20.10;99.90;;;20.50;67.27;94937.63;5128978;27;20452;-55
2022/06/30 02:32:08;;;;;;;6.37;5.87;;;20.10;99.90;;;20.50;67.32;94940.31;5128549;27;20855;-56
2022/06/30 02:34:36;;;;;;;6.63;5.57;;;20.10;99.90;;;20.50;67.58;94936.81;5128722;27;20452;-56
2022/06/30 02:37:03;;;;;;;6.60;5.90;;;20.00;99.90;;;20.49;67.20;94935.16;5128505;27;20460;-56
2022/06/30 02:39:31;;;;;;;10.43;6.67;;;20.00;99.90;;;20.48;67.40;94938.84;5127573;27;20512;-56
2022/06/30 02:41:58;;;;;;;8.07;6.13;;;20.00;99.90;;;20.46;67.57;94941.72;5128612;27;20853;-54
2022/06/30 02:44:27;;;;;;;7.40;5.80;;;20.00;99.90;;;20.45;67.45;94942.75;5128270;27;20469;-54
2022/06/30 02:46:54;;;;;;;6.60;5.87;;;20.00;99.90;;;20.45;67.98;94933.91;5128285;27;20480;-57
2022/06/30 02:49:22;;;;;;;6.53;5.13;;;20.00;99.90;;;20.41;67.88;94930.81;5128141;27;20448;-55
2022/06/30 02:51:49;;;;;;;10.63;6.07;;;19.90;99.90;;;20.40;67.52;94937.16;5128445;27;20861;-54
2022/06/30 02:54:16;;;;;;;7.60;6.10;;;19.90;99.90;;;20.39;67.72;94940.88;5127980;27;20475;-56
2022/06/30 02:56:44;;;;;;;9.27;6.73;;;19.90;99.90;;;20.38;67.65;94945.38;5127912;27;20521;-53
2022/06/30 02:59:11;;;;;;;6.90;6.20;;;19.90;99.90;;;20.38;67.97;94950.72;5127712;27;20448;-55
2022/06/30 03:01:40;;;;;;;11.20;6.23;;;19.90;99.90;;;20.37;68.14;94941.06;5127859;27;20528;-55
2022/06/30 03:04:07;;;;;;;14.30;6.27;;;19.90;99.90;;;20.38;68.12;94945.38;5127578;27;20920;-56
2022/06/30 03:06:35;;;;;;;6.40;5.90;;;19.90;99.90;;;20.37;68.03;94941.06;5128025;27;20479;-54
2022/06/30 03:09:02;;;;;;;15.23;5.57;;;19.90;99.90;;;20.37;67.75;94941.06;5126997;27;20445;-56
2022/06/30 03:11:30;;;;;;;6.40;5.60;;;19.90;99.90;;;20.35;67.53;94929.75;5127803;27;20513;-55
2022/06/30 03:13:57;;;;;;;9.10;5.30;;;19.90;99.90;;;20.35;67.43;94934.28;5128083;27;20871;-55
2022/06/30 03:16:24;;;;;;;20.47;6.50;;;19.90;99.90;;;20.34;67.07;94933.47;5127497;27;20872;-54
2022/06/30 03:18:53;;;;;;;17.53;6.90;;;19.90;99.90;;;20.32;67.21;94927.47;5125361;27;20952;-55
2022/06/30 03:21:21;;;;;;;13.70;6.50;;;19.90;99.90;;;20.28;66.98;94928.91;5127324;27;20460;-55
2022/06/30 03:23:48;;;;;;;18.20;6.20;;;19.80;99.90;;;20.27;66.92;94934.44;5123219;27;20440;-55
2022/06/30 03:26:16;;;;;;;7.67;5.90;;;19.80;99.90;;;20.23;67.46;94942.00;5127618;27;20475;-55
2022/06/30 03:28:43;;;;;;;14.70;6.03;;;19.80;99.90;;;20.24;67.14;94935.66;5126502;27;20454;-54
2022/06/30 03:31:11;;;;;;;11.03;7.23;;;19.80;99.90;;;20.26;67.15;94946.16;5125428;27;20785;-54
2022/06/30 03:33:38;;;;;;;6.50;5.10;;;19.80;99.90;;;20.27;67.61;94937.94;5116088;27;20532;-54
2022/06/30 03:36:07;;;;;;;18.33;6.83;;;19.80;99.90;;;20.30;67.24;94937.53;5118337;27;20495;-55
2022/06/30 03:38:34;;;;;;;13.30;7.50;;;19.80;99.90;;;20.33;67.50;94936.34;5112305;27;20449;-56
2022/06/30 03:41:02;;;;;;;12.30;5.60;;;19.80;99.90;;;20.36;67.11;94939.41;5122254;27;20509;-55
2022/06/30 03:43:29;;;;;;;7.80;6.73;;;19.90;99.90;;;20.38;67.49;94940.03;5122896;27;20837;-55
2022/06/30 03:45:56;;;;;;;21.83;6.87;;;19.90;99.90;;;20.39;66.92;94935.53;5126973;27;20468;-55
2022/06/30 03:48:24;;;;;;;13.30;6.60;;;19.90;99.90;;;20.40;67.09;94942.50;5127170;27;20509;-55
2022/06/30 03:50:51;;;;;;;24.67;5.67;;;19.90;99.90;;;20.41;66.93;94939.63;5127053;27;20487;-56
2022/06/30 03:53:20;;;;;;;12.20;5.57;;;19.90;99.90;;;20.44;67.23;94940.28;5130123;27;20444;-54
2022/06/30 03:55:47;;;;;;;12.10;5.93;;;20.00;99.90;;;20.45;66.80;94948.09;5128747;27;20834;-56
2022/06/30 03:58:14;;;;;;;8.90;6.20;;;20.00;99.90;;;20.46;66.06;94948.91;5122887;27;20443;-56
2022/06/30 04:00:42;;;;;;;12.07;6.70;;;20.00;99.90;;;20.44;66.06;94954.44;5120975;27;20473;-54
2022/06/30 04:03:09;;;;;;;11.40;6.93;;;20.00;99.90;;;20.44;66.09;94946.44;5118817;27;20449;-55
2022/06/30 04:05:38;;;;;;;17.90;7.80;;;20.00;99.90;;;20.45;66.42;94949.94;5121381;27;20472;-55
2022/06/30 04:08:05;;;;;;;17.87;8.20;;;20.00;99.90;;;20.45;66.58;94950.78;5116891;27;20509;-56
2022/06/30 04:10:34;;;;;;;12.63;7.17;;;20.00;99.90;;;20.49;66.94;94948.50;5116884;27;20855;-54
2022/06/30 04:13:01;;;;;;;19.77;8.30;;;20.00;99.90;;;20.54;66.97;94954.06;5118356;27;20458;-55
2022/06/30 04:15:29;;;;;;;27.47;7.07;;;20.00;99.90;;;20.58;66.79;94950.00;5119260;27;20845;-54
2022/06/30 04:17:57;;;;;;;12.73;7.27;;;20.10;99.90;;;20.63;66.90;94949.38;5122046;27;20453;-54
2022/06/30 04:20:24;;;;;;;22.90;7.30;;;20.10;99.90;;;20.67;66.79;94948.81;5119481;27;20878;-52
2022/06/30 04:22:52;;;;;;;18.40;7.03;;;20.20;99.90;;;20.72;66.92;94951.69;5117940;27;20452;-56
2022/06/30 04:25:20;;;;;;;17.20;7.23;;;20.20;99.90;;;20.78;66.74;94950.91;5116301;27;20469;-54
2022/06/30 04:27:50;;;;;;;13.63;7.53;;;20.30;99.90;;;20.83;67.04;94952.97;5119752;27;20891;-55
2022/06/30 04:32:37;;;;;;;34.47;13.47;;;20.30;99.90;;;20.91;66.88;94954.63;5121681;27;20862;-55
2022/06/30 04:33:04;;;;;;;34.60;11.30;;;20.40;99.90;;;21.01;66.93;94957.75;5115858;28;20470;-56
2022/06/30 04:35:32;;;;;;;41.53;10.40;;;20.50;99.90;;;21.09;66.69;94957.56;5119789;28;20543;-57
2022/06/30 04:37:59;;;;;;;39.57;10.27;;;20.60;99.90;;;21.17;66.54;94964.56;5117620;28;20465;-54
2022/06/30 04:43:12;;;;;;;20.23;9.40;;;20.70;99.90;;;21.38;65.91;94957.38;5113855;28;20440;-54
2022/06/30 04:45:41;;;;;;;16.00;9.60;;;20.90;99.90;;;21.47;65.75;94965.03;5119613;27;20483;-55
2022/06/30 04:48:08;;;;;;;19.80;7.60;;;20.90;99.90;;;21.55;65.08;94965.84;5118865;27;21075;-56
2022/06/30 04:50:36;;;;;;;19.00;7.60;;;21.00;99.90;;;21.60;65.20;94961.53;5123057;27;20480;-54
2022/06/30 04:53:03;;;;;;;11.00;7.70;;;21.10;99.90;;;21.66;64.74;94962.59;5119940;27;20502;-54
2022/06/30 04:55:31;;;;;;;17.30;8.23;;;21.10;99.80;;;21.70;64.61;94961.13;5115952;27;20499;-55
2022/06/30 04:57:58;;;;;;;14.00;7.93;;;21.20;99.60;;;21.72;64.22;94967.13;5123332;27;20451;-53
2022/06/30 05:00:27;;;;;;;20.37;7.77;;;21.20;99.50;;;21.75;64.41;94969.38;5119919;27;20495;-54
2022/06/30 05:02:55;;;;;;;15.10;8.27;;;21.20;99.40;;;21.76;64.45;94957.63;5120782;27;20465;-55
2022/06/30 05:05:22;;;;;;;19.33;8.57;;;21.30;99.40;;;21.79;64.26;94959.88;5123687;27;20477;-57
2022/06/30 05:07:50;;;;;;;24.70;11.13;;;21.30;99.50;;;21.83;64.60;94962.97;5124472;27;20508;-55
2022/06/30 05:10:17;;;;;;;23.97;8.90;;;21.30;99.60;;;21.90;64.28;94965.66;5126985;27;20517;-55
2022/06/30 05:12:44;;;;;;;19.73;9.23;;;21.40;99.50;;;21.97;64.39;94969.16;5130395;27;20983;-56
2022/06/30 05:15:12;;;;;;;19.57;9.87;;;21.40;99.50;;;22.06;64.59;94961.69;5129959;27;20470;-55
2022/06/30 05:17:40;;;;;;;12.13;9.67;;;21.50;99.60;;;22.16;64.03;94962.91;5129216;27;21023;-56
2022/06/30 05:20:09;;;;;;;12.23;10.03;;;21.60;99.40;;;22.31;64.72;94972.63;5129293;27;20467;-55
2022/06/30 05:22:37;;;;;;;16.90;9.77;;;21.70;99.50;;;22.46;63.96;94973.16;5125182;27;20452;-56
2022/06/30 05:27:49;;;;;;;23.43;9.10;;;22.00;99.10;;;22.84;63.36;94974.28;5127403;27;20525;-53
2022/06/30 05:30:17;;;;;;;17.30;10.67;;;22.20;98.80;;;23.01;62.58;94971.91;5129944;27;20839;-57
2022/06/30 05:32:45;;;;;;;12.63;8.97;;;22.40;98.50;;;23.17;62.76;94968.72;5128336;27;20460;-55
2022/06/30 05:35:13;;;;;;;15.20;9.33;;;22.50;98.40;;;23.41;61.57;94982.44;5129619;27;20544;-57
2022/06/30 05:37:41;;;;;;;15.90;9.47;;;22.70;98.20;;;23.63;61.44;94977.50;5128059;27;20908;-58
2022/06/30 05:40:09;;;;;;;13.23;10.23;;;22.90;98.00;;;23.88;60.68;94982.09;5128830;27;20468;-57
2022/06/30 05:42:36;;;;;;;18.17;9.87;;;23.20;97.50;;;24.06;60.61;94986.66;5129264;27;20455;-56
2022/06/30 05:45:04;;;;;;;22.50;10.53;;;23.40;97.20;;;24.23;59.69;94990.44;5129122;27;20475;-54
2022/06/30 05:47:32;;;;;;;15.90;10.60;;;23.50;96.60;;;24.42;59.24;94990.47;5129473;27;20444;-55
2022/06/30 05:50:00;;;;;;;16.77;10.10;;;23.70;96.50;;;24.65;58.94;94993.31;5129587;27;20491;-56
2022/06/30 05:52:28;;;;;;;12.23;10.10;;;23.90;96.30;;;24.87;58.59;94988.28;5128801;27;20857;-54
2022/06/30 05:54:56;;;;;;;14.13;10.13;;;24.10;95.80;;;25.12;58.11;94990.03;5129598;27;20463;-56
2022/06/30 05:57:23;;;;;;;20.93;10.00;;;24.30;95.60;;;25.36;57.80;94992.84;5128733;27;21085;-54
2022/06/30 05:59:50;;;;;;;28.03;10.13;;;24.60;95.30;;;25.61;56.75;94995.41;5129445;27;20440;-58
2022/06/30 06:02:18;;;;;;;13.47;10.70;;;24.80;94.90;;;25.84;56.29;94993.78;5128114;27;20455;-56
2022/06/30 06:04:45;;;;;;;19.00;10.00;;;25.10;94.20;;;26.03;55.59;94991.84;5129115;27;21002;-56
2022/06/30 06:07:14;;;;;;;41.23;9.87;;;25.20;93.50;;;26.18;55.62;94999.47;5128915;27;20440;-53
2022/06/30 06:09:41;;;;;;;14.53;9.00;;;25.40;93.30;;;26.32;54.80;94997.34;5129212;27;20450;-57
2022/06/30 06:12:09;;;;;;;13.90;9.23;;;25.60;92.90;;;26.46;54.60;94991.47;5129695;27;20455;-56
2022/06/30 06:14:37;;;;;;;13.50;9.43;;;25.70;92.60;;;26.63;54.37;94996.13;5123554;27;20443;-53
2022/06/30 06:17:05;;;;;;;18.17;9.37;;;25.90;92.30;;;26.80;54.11;94994.38;5121411;27;20479;-54
2022/06/30 06:19:32;;;;;;;11.73;8.50;;;26.00;92.00;;;26.99;53.75;95005.81;5123825;27;20456;-56
2022/06/30 06:22:00;;;;;;;15.03;9.10;;;26.20;91.60;;;27.17;53.32;94999.44;5123033;27;20536;-54
2022/06/30 06:24:28;;;;;;;12.33;8.43;;;26.40;91.30;;;27.39;52.96;95006.88;5128855;27;20447;-54
2022/06/30 06:26:55;;;;;;;26.77;8.50;;;26.60;91.10;;;27.59;52.94;95006.44;5128714;27;20471;-56
2022/06/30 06:29:23;;;;;;;14.83;8.00;;;26.70;90.70;;;27.79;52.01;95007.84;5128809;27;20452;-58
2022/06/30 06:31:50;;;;;;;27.37;7.40;;;27.00;90.20;;;27.93;51.19;95005.63;5122572;27;20520;-54
2022/06/30 06:34:17;;;;;;;14.67;8.37;;;27.10;87.70;;;28.00;51.09;94998.22;5126494;27;20443;-57
2022/06/30 06:36:45;;;;;;;20.40;7.67;;;27.30;87.70;;;28.06;50.37;95000.75;5127071;27;20495;-56
2022/06/30 06:39:12;;;;;;;18.20;7.80;;;27.30;86.70;;;28.18;49.93;94991.72;5127098;27;20455;-56
2022/06/30 06:41:41;;;;;;;21.87;7.13;;;27.50;85.50;;;28.33;49.85;94997.34;5128359;27;20799;-56
2022/06/30 06:44:08;;;;;;;20.37;8.13;;;27.60;84.30;;;28.45;49.09;94986.44;5128705;27;20456;-55
2022/06/30 06:46:35;;;;;;;14.90;7.10;;;27.70;83.30;;;28.57;48.86;94989.84;5128283;27;20971;-58
2022/06/30 06:49:04;;;;;;;12.90;7.70;;;27.80;82.80;;;28.72;49.22;94986.56;5126907;27;20824;-56
2022/06/30 06:51:32;;;;;;;22.87;10.13;;;27.90;82.00;;;28.92;48.08;94980.59;5128181;27;20498;-56
2022/06/30 06:53:59;;;;;;;9.43;7.50;;;28.10;81.10;;;29.09;48.04;94980.50;5127426;27;20439;-56
2022/06/30 06:56:26;;;;;;;15.20;9.77;;;28.30;80.50;;;29.27;47.59;94982.06;5123533;27;20929;-57
2022/06/30 06:58:55;;;;;;;21.20;7.07;;;28.40;79.50;;;29.46;46.63;94984.44;5128406;27;20964;-56
2022/06/30 07:01:22;;;;;;;12.30;7.40;;;28.60;77.00;;;29.59;47.73;94983.19;5128467;27;20820;-57
2022/06/30 07:03:50;;;;;;;12.90;7.93;;;28.80;77.60;;;29.72;46.83;94976.56;5126647;27;20979;-56
2022/06/30 07:06:17;;;;;;;13.10;6.60;;;28.90;77.20;;;29.88;46.56;94981.03;5127791;27;20482;-54
2022/06/30 07:08:44;;;;;;;14.53;7.13;;;29.10;76.40;;;30.05;47.06;94970.06;5127138;27;20443;-53
2022/06/30 07:11:12;;;;;;;12.67;7.30;;;29.20;75.50;;;30.18;46.49;94974.22;5128128;27;20498;-56
2022/06/30 07:13:39;;;;;;;15.50;6.77;;;29.30;74.50;;;30.19;46.22;94975.84;5128280;27;20213;-57
2022/06/30 07:16:08;;;;;;;9.70;6.70;;;29.40;73.90;;;30.30;46.41;94972.13;5128083;27;20471;-55
2022/06/30 07:18:35;;;;;;;21.53;8.27;;;29.50;73.40;;;30.47;45.57;94971.16;5127796;27;20682;-56
2022/06/30 07:21:02;;;;;;;9.90;6.60;;;29.60;72.70;;;30.63;45.31;94964.75;5128335;27;20716;-56
2022/06/30 07:23:30;;;;;;;21.97;6.70;;;29.80;72.90;;;30.80;45.45;94969.16;5123117;27;20212;-55
2022/06/30 07:25:57;;;;;;;13.07;6.30;;;29.90;71.50;;;30.99;44.66;94964.13;5125570;27;20226;-55
2022/06/30 07:28:24;;;;;;;10.37;7.40;;;30.10;71.10;;;31.17;44.41;94969.06;5122310;27;20205;-55
2022/06/30 07:30:52;;;;;;;13.73;7.10;;;30.30;70.70;;;31.36;44.62;94961.22;5126798;27;20218;-56
2022/06/30 07:33:21;;;;;;;7.87;6.70;;;30.50;69.60;;;31.53;44.19;94960.16;5126608;27;20296;-54
2022/06/30 07:35:48;;;;;;;8.53;6.30;;;30.70;69.10;;;31.67;44.24;94969.47;5126908;27;20232;-55
2022/06/30 07:38:15;;;;;;;10.30;5.80;;;30.80;68.60;;;31.72;43.59;94969.44;5126536;27;20234;-55
2022/06/30 07:40:43;;;;;;;6.63;5.50;;;30.90;67.30;;;31.77;43.53;94963.19;5124368;27;20241;-54
2022/06/30 07:43:11;;;;;;;6.13;5.53;;;30.90;67.00;;;31.89;43.37;94968.38;5127321;27;20205;-55
2022/06/30 07:45:39;;;;;;;7.70;7.00;;;31.00;66.80;;;31.92;43.26;94970.56;5126651;27;20222;-56
2022/06/30 07:48:06;;;;;;;10.87;5.87;;;31.00;65.90;;;31.81;42.97;94967.00;5127183;27;20202;-55
2022/06/30 07:50:35;;;;;;;10.13;6.17;;;31.00;64.60;;;31.70;43.18;94963.47;5127380;27;20218;-56
2022/06/30 07:53:02;;;;;;;8.43;6.28;;;30.90;64.10;;;31.62;42.51;94961.28;5127082;27;20698;-56
2022/06/30 07:55:30;;;;;;;7.93;5.78;;;30.80;63.70;;;31.71;43.05;94956.94;5127260;27;20324;-56
2022/06/30 07:57:57;;;;;;;13.20;6.13;;;30.80;63.40;;;31.81;42.25;94956.94;5127116;27;20229;-56
2022/06/30 08:00:24;;;;;;;15.33;5.63;;;30.90;62.40;;;31.98;42.06;94958.59;5126536;27;20218;-54
2022/06/30 08:02:52;;;;;;;8.60;5.60;;;31.00;62.50;;;32.15;41.93;94956.41;5125676;27;20703;-56
2022/06/30 08:05:19;;;;;;;6.95;5.90;;;31.30;62.20;;;32.25;41.91;94963.72;5126574;27;20226;-56
2022/06/30 08:07:48;;;;;;;11.00;5.57;;;31.40;61.90;;;32.42;41.87;94955.25;5127103;27;20605;-57
2022/06/30 08:10:16;;;;;;;9.80;6.53;;;31.50;62.00;;;32.52;41.41;94960.69;5125521;27;20879;-57
2022/06/30 08:12:44;;;;;;;11.20;5.97;;;31.60;61.30;;;32.59;41.77;94956.88;5127303;27;20202;-56
2022/06/30 08:15:11;;;;;;;17.85;6.63;;;31.70;61.40;;;32.76;41.70;94960.09;5127306;27;20298;-55
2022/06/30 08:17:38;;;;;;;8.07;6.03;;;31.90;61.40;;;32.99;41.65;94957.84;5126307;27;20221;-54
2022/06/30 08:20:07;;;;;;;15.98;5.60;;;32.10;61.00;;;33.27;40.89;94953.63;5126536;27;20214;-54
2022/06/30 08:22:34;;;;;;;9.55;6.28;;;32.30;60.30;;;33.52;40.80;94954.56;5126645;27;20675;-56
2022/06/30 08:25:03;;;;;;;21.92;6.72;;;32.60;59.50;;;33.61;40.29;94952.88;5123069;27;20581;-56
2022/06/30 08:27:31;;;;;;;11.63;6.60;;;32.70;58.20;;;33.63;40.08;94950.66;5124714;27;20198;-56
2022/06/30 08:29:58;;;;;;;12.70;6.75;;;32.80;58.00;;;33.63;39.05;94956.13;5126697;27;20237;-53
2022/06/30 08:32:25;;;;;;;22.45;6.80;;;32.80;57.20;;;33.60;38.92;94956.69;5125598;27;20274;-55
2022/06/30 08:34:53;;;;;;;7.18;5.90;;;32.80;56.50;;;33.50;38.66;94954.03;5126243;28;20202;-54
2022/06/30 08:37:20;;;;;;;7.82;5.85;;;32.70;56.00;;;33.50;38.98;94957.56;5126697;28;20581;-57
2022/06/30 08:42:42;;;;;;;6.05;5.22;;;32.70;55.30;;;33.55;37.49;94959.44;5074190;28;20213;-53
2022/06/30 08:45:17;;;;;;;7.88;4.80;;;32.80;54.40;;;33.52;37.98;94957.28;5126601;28;20286;-56
2022/06/30 08:47:45;;;;;;;16.55;4.38;;;32.80;54.40;;;33.66;37.81;94965.66;5126582;28;20205;-56
2022/06/30 08:50:14;;;;;;;12.35;4.80;;;32.80;54.40;;;33.71;37.30;94957.41;5126367;28;20256;-55
2022/06/30 08:52:45;;;;;;;9.38;5.07;;;32.90;53.60;;;33.81;37.68;94956.59;5126704;28;20554;-56
2022/06/30 08:55:13;;;;;;;14.07;5.13;;;32.90;53.60;;;34.03;37.42;94958.84;5122291;28;20470;-57
2022/06/30 08:57:42;;;;;;;7.07;5.00;;;33.10;53.60;;;34.33;37.21;94963.22;5126131;28;20233;-56
2022/06/30 09:00:11;;;;;;;7.60;4.97;;;33.40;52.90;;;34.60;36.24;94962.69;5125808;28;20221;-53
2022/06/30 09:02:39;;;;;;;7.03;4.95;;;33.70;53.10;;;34.88;36.94;94959.41;5120494;28;20479;-56
2022/06/30 09:05:07;;;;;;;12.50;5.65;;;34.00;52.80;;;35.14;36.57;94949.75;5125773;28;20602;-56
2022/06/30 09:07:35;;;;;;;13.88;5.40;;;34.20;52.30;;;35.24;35.66;94948.78;5126111;28;20259;-57
2022/06/30 09:10:02;;;;;;;9.45;5.60;;;34.40;50.50;;;35.17;35.29;94954.63;5126192;28;20237;-56
2022/06/30 09:12:30;;;;;;;12.13;5.38;;;34.40;50.10;;;35.07;34.45;94951.22;5125976;28;20202;-56
2022/06/30 09:14:59;;;;;;;9.38;4.95;;;34.30;49.60;;;35.01;35.48;94943.09;5126086;28;20555;-53
2022/06/30 09:17:28;;;;;;;11.65;6.07;;;34.30;49.80;;;35.04;35.13;94933.47;5124766;28;20696;-56
2022/06/30 09:19:57;;;;;;;14.38;5.70;;;34.20;49.60;;;34.95;34.00;94935.25;5126404;28;20305;-55
2022/06/30 09:22:26;;;;;;;16.08;5.38;;;34.20;48.60;;;34.83;35.05;94936.47;5126006;28;20190;-53
2022/06/30 09:25:01;;;;;;;19.67;5.68;;;34.10;48.80;;;34.73;34.61;94933.03;5126445;28;20206;-57
2022/06/30 09:27:41;;;;;;;11.73;5.50;;;34.00;48.90;;;34.71;34.55;94929.78;5120598;28;20709;-54
2022/06/30 09:30:11;;;;;;;14.85;5.53;;;34.00;49.00;;;34.85;34.79;94922.53;5125893;27;20717;-57
2022/06/30 09:32:47;;;;;;;8.43;5.20;;;34.00;48.90;;;34.95;34.36;94929.78;5128275;27;20217;-55
2022/06/30 09:35:15;;;;;;;10.95;6.15;;;34.10;47.70;;;34.93;33.97;94927.34;5129777;27;20222;-55
2022/06/30 09:37:42;;;;;;;13.10;5.40;;;34.10;47.70;;;34.93;33.76;94930.06;5129653;27;20234;-57
2022/06/30 09:40:10;;;;;;;8.27;5.78;;;34.20;47.80;;;34.91;34.22;94915.88;5129625;27;20939;-57
2022/06/30 09:42:40;;;;;;;15.32;6.43;;;34.20;47.70;;;35.05;33.91;94926.13;5129290;27;20293;-55
2022/06/30 09:45:11;;;;;;;7.78;5.47;;;34.20;47.80;;;35.21;33.75;94922.03;5129340;27;20222;-53
2022/06/30 09:47:51;;;;;;;11.77;3.97;;;34.30;47.80;;;35.45;34.18;94922.00;5129537;27;20251;-58
2022/06/30 09:50:18;;;;;;;5.93;4.95;;;34.50;47.90;;;35.76;34.40;94926.16;5125913;27;20222;-53
2022/06/30 09:52:45;;;;;;;9.05;5.68;;;34.80;48.10;;;35.92;33.57;94921.31;5130051;27;20281;-56
2022/06/30 09:55:13;;;;;;;21.25;6.35;;;35.00;47.10;;;35.84;33.36;94929.09;5129842;27;20218;-54
2022/06/30 09:57:43;;;;;;;10.35;5.75;;;35.10;46.60;;;35.68;32.94;94931.22;5128940;27;20257;-56
2022/06/30 10:00:14;;;;;;;6.68;4.95;;;35.00;46.00;;;35.51;32.36;94922.75;5129839;27;20694;-53
2022/06/30 10:02:44;;;;;;;8.05;5.47;;;34.80;45.70;;;35.36;32.93;94916.38;5123620;27;20216;-57
2022/06/30 10:05:11;;;;;;;10.55;5.45;;;34.70;45.20;;;35.37;33.50;94917.22;5129392;27;20309;-56
2022/06/30 10:07:39;;;;;;;9.52;5.20;;;34.70;46.20;;;35.44;33.12;94905.88;5129066;27;20210;-54
2022/06/30 10:10:08;;;;;;;10.02;4.88;;;34.70;45.80;;;35.52;32.30;94907.94;5129198;27;20221;-57
2022/06/30 10:12:36;;;;;;;7.20;4.82;;;34.70;45.60;;;35.66;31.94;94908.00;5128947;27;20213;-55
2022/06/30 10:15:03;;;;;;;14.05;4.78;;;34.80;45.00;;;35.73;32.12;94909.25;5128865;27;20702;-57
2022/06/30 10:17:34;;;;;;;14.07;5.05;;;34.90;45.20;;;35.84;32.14;94907.19;5127346;27;20217;-57
2022/06/30 10:20:02;;;;;;;14.40;5.20;;;35.00;45.70;;;35.96;31.67;94909.47;5129013;27;20225;-54
2022/06/30 10:22:30;;;;;;;5.88;4.65;;;35.10;44.70;;;36.05;32.92;94904.91;5129022;27;20194;-56
2022/06/30 10:24:58;;;;;;;12.38;4.40;;;35.20;45.20;;;36.10;31.36;94892.22;5129269;27;20202;-56
2022/06/30 10:27:27;;;;;;;8.45;3.97;;;35.20;43.50;;;36.16;31.28;94897.34;5126143;27;20247;-55
2022/06/30 10:29:57;;;;;;;5.00;4.07;;;35.40;43.70;;;36.24;31.73;94891.16;5128801;27;20203;-54
2022/06/30 10:32:54;;;;;;;13.27;4.97;;;35.40;43.30;;;36.24;30.73;94891.16;5127133;27;20217;-53
2022/06/30 10:35:29;;;;;;;6.55;4.45;;;35.40;42.70;;;36.27;31.76;94892.50;5126556;27;20766;-55